sensor_id;sensor_type;location;lat;lon;timestamp;pressure;altitude;pressure_sealevel;temperature;humidity
43298;BME280;28892;55.640;37.532;2023-04-15T00:01:59;99820.50;;;4.26;22.52
43298;BME280;28892;55.640;37.532;2023-04-15T00:04:25;99839.00;;;4.24;22.67
43298;BME280;28892;55.640;37.532;2023-04-15T00:06:53;99839.03;;;4.45;22.27
43298;BME280;28892;55.640;37.532;2023-04-15T00:09:20;99842.88;;;4.63;22.30
43298;BME280;28892;55.640;37.532;2023-04-15T00:11:46;99839.50;;;4.18;22.21
43298;BME280;28892;55.640;37.532;2023-04-15T00:14:12;99830.22;;;4.14;22.33
43298;BME280;28892;55.640;37.532;2023-04-15T00:16:38;99847.38;;;4.18;22.37
43298;BME280;28892;55.640;37.532;2023-04-15T00:19:04;99828.19;;;4.17;22.56
43298;BME280;28892;55.640;37.532;2023-04-15T00:21:29;99845.72;;;4.17;22.63
43298;BME280;28892;55.640;37.532;2023-04-15T00:23:55;99859.75;;;4.27;22.59
43298;BME280;28892;55.640;37.532;2023-04-15T00:26:21;99845.09;;;4.25;22.55
43298;BME280;28892;55.640;37.532;2023-04-15T00:28:49;99857.28;;;4.14;22.56
43298;BME280;28892;55.640;37.532;2023-04-15T00:31:14;99862.16;;;4.19;22.35
43298;BME280;28892;55.640;37.532;2023-04-15T00:33:40;99869.19;;;4.30;22.41
43298;BME280;28892;55.640;37.532;2023-04-15T00:36:06;99867.44;;;4.19;22.23
43298;BME280;28892;55.640;37.532;2023-04-15T00:38:33;99869.59;;;4.14;22.68
43298;BME280;28892;55.640;37.532;2023-04-15T00:40:58;99864.34;;;4.14;22.47
43298;BME280;28892;55.640;37.532;2023-04-15T00:43:24;99867.13;;;4.01;22.59
43298;BME280;28892;55.640;37.532;2023-04-15T00:45:52;99879.75;;;4.18;22.48
43298;BME280;28892;55.640;37.532;2023-04-15T00:48:19;99874.69;;;4.27;22.24
43298;BME280;28892;55.640;37.532;2023-04-15T00:50:45;99887.66;;;4.07;22.80
43298;BME280;28892;55.640;37.532;2023-04-15T00:53:12;99882.50;;;4.05;22.61
43298;BME280;28892;55.640;37.532;2023-04-15T00:55:37;99880.38;;;3.99;22.68
43298;BME280;28892;55.640;37.532;2023-04-15T00:58:04;99878.22;;;4.04;22.78
43298;BME280;28892;55.640;37.532;2023-04-15T01:00:30;99887.69;;;3.96;22.93
43298;BME280;28892;55.640;37.532;2023-04-15T01:02:57;99875.63;;;3.93;22.61
43298;BME280;28892;55.640;37.532;2023-04-15T01:05:23;99871.00;;;4.18;22.49
43298;BME280;28892;55.640;37.532;2023-04-15T01:07:49;99885.53;;;3.89;22.53
43298;BME280;28892;55.640;37.532;2023-04-15T01:10:15;99902.59;;;3.84;23.06
43298;BME280;28892;55.640;37.532;2023-04-15T01:12:41;99894.38;;;3.88;22.68
43298;BME280;28892;55.640;37.532;2023-04-15T01:15:07;99894.03;;;3.82;23.20
43298;BME280;28892;55.640;37.532;2023-04-15T01:17:35;99894.38;;;3.88;22.91
43298;BME280;28892;55.640;37.532;2023-04-15T01:20:01;99903.44;;;3.96;22.90
43298;BME280;28892;55.640;37.532;2023-04-15T01:22:29;99903.31;;;3.86;23.05
43298;BME280;28892;55.640;37.532;2023-04-15T01:25:17;99912.84;;;3.87;23.17
43298;BME280;28892;55.640;37.532;2023-04-15T01:27:44;99903.41;;;3.84;23.04
43298;BME280;28892;55.640;37.532;2023-04-15T01:30:10;99905.22;;;3.84;23.13
43298;BME280;28892;55.640;37.532;2023-04-15T01:32:36;99905.94;;;3.74;23.36
43298;BME280;28892;55.640;37.532;2023-04-15T01:35:20;99908.09;;;3.92;22.95
43298;BME280;28892;55.640;37.532;2023-04-15T01:37:47;99911.31;;;3.73;23.19
43298;BME280;28892;55.640;37.532;2023-04-15T01:40:15;99922.19;;;3.80;23.29
43298;BME280;28892;55.640;37.532;2023-04-15T01:42:43;99931.22;;;3.87;23.32
43298;BME280;28892;55.640;37.532;2023-04-15T01:45:10;99940.88;;;3.52;23.56
43298;BME280;28892;55.640;37.532;2023-04-15T01:47:38;99937.69;;;3.60;23.33
43298;BME280;28892;55.640;37.532;2023-04-15T01:50:05;99940.06;;;3.40;23.90
43298;BME280;28892;55.640;37.532;2023-04-15T01:52:32;99941.59;;;3.31;23.92
43298;BME280;28892;55.640;37.532;2023-04-15T01:54:59;99932.91;;;3.54;23.62
43298;BME280;28892;55.640;37.532;2023-04-15T01:57:26;99942.78;;;3.61;23.84
43298;BME280;28892;55.640;37.532;2023-04-15T01:59:53;99949.47;;;3.43;23.81
43298;BME280;28892;55.640;37.532;2023-04-15T02:02:21;99950.66;;;3.61;23.63
43298;BME280;28892;55.640;37.532;2023-04-15T02:04:48;99955.81;;;3.52;23.48
43298;BME280;28892;55.640;37.532;2023-04-15T02:07:16;99949.84;;;3.38;23.61
43298;BME280;28892;55.640;37.532;2023-04-15T02:09:43;99962.34;;;3.46;23.72
43298;BME280;28892;55.640;37.532;2023-04-15T02:12:11;99963.16;;;3.46;23.79
43298;BME280;28892;55.640;37.532;2023-04-15T02:14:39;99957.09;;;3.46;23.61
43298;BME280;28892;55.640;37.532;2023-04-15T02:17:06;99959.47;;;3.26;24.09
43298;BME280;28892;55.640;37.532;2023-04-15T02:19:34;99957.00;;;3.36;23.82
43298;BME280;28892;55.640;37.532;2023-04-15T02:22:03;99977.72;;;3.39;24.03
43298;BME280;28892;55.640;37.532;2023-04-15T02:24:30;99957.06;;;3.23;23.86
43298;BME280;28892;55.640;37.532;2023-04-15T02:26:57;99977.47;;;3.31;24.05
43298;BME280;28892;55.640;37.532;2023-04-15T02:29:24;99980.09;;;3.31;23.96
43298;BME280;28892;55.640;37.532;2023-04-15T02:31:51;99969.69;;;3.18;24.00
43298;BME280;28892;55.640;37.532;2023-04-15T02:34:18;99981.97;;;3.17;24.19
43298;BME280;28892;55.640;37.532;2023-04-15T02:36:45;99978.50;;;3.17;24.07
43298;BME280;28892;55.640;37.532;2023-04-15T02:39:15;99984.47;;;3.30;24.12
43298;BME280;28892;55.640;37.532;2023-04-15T02:41:44;99986.31;;;3.41;23.73
43298;BME280;28892;55.640;37.532;2023-04-15T02:44:14;100001.78;;;3.33;24.07
43298;BME280;28892;55.640;37.532;2023-04-15T02:46:41;100010.56;;;3.20;24.14
43298;BME280;28892;55.640;37.532;2023-04-15T02:49:08;100004.38;;;3.21;24.02
43298;BME280;28892;55.640;37.532;2023-04-15T02:51:36;100001.75;;;3.21;24.30
43298;BME280;28892;55.640;37.532;2023-04-15T02:54:04;100005.19;;;3.11;24.35
43298;BME280;28892;55.640;37.532;2023-04-15T02:56:31;100007.47;;;3.15;24.40
43298;BME280;28892;55.640;37.532;2023-04-15T02:58:58;100015.22;;;3.28;24.20
43298;BME280;28892;55.640;37.532;2023-04-15T03:01:34;100015.81;;;3.20;24.31
43298;BME280;28892;55.640;37.532;2023-04-15T03:04:21;100012.97;;;3.35;24.08
43298;BME280;28892;55.640;37.532;2023-04-15T03:06:48;100021.81;;;3.34;24.08
43298;BME280;28892;55.640;37.532;2023-04-15T03:09:18;100016.88;;;3.18;24.25
43298;BME280;28892;55.640;37.532;2023-04-15T03:11:51;100015.91;;;3.19;24.05
43298;BME280;28892;55.640;37.532;2023-04-15T03:14:21;100015.13;;;3.30;24.00
43298;BME280;28892;55.640;37.532;2023-04-15T03:16:49;100023.94;;;3.29;24.20
43298;BME280;28892;55.640;37.532;2023-04-15T03:19:18;100019.25;;;3.10;24.39
43298;BME280;28892;55.640;37.532;2023-04-15T03:21:48;100021.28;;;3.17;24.33
43298;BME280;28892;55.640;37.532;2023-04-15T03:24:15;100024.41;;;3.22;24.09
43298;BME280;28892;55.640;37.532;2023-04-15T03:26:42;100026.28;;;3.09;23.92
43298;BME280;28892;55.640;37.532;2023-04-15T03:29:12;100037.03;;;3.17;24.32
43298;BME280;28892;55.640;37.532;2023-04-15T03:31:40;100032.06;;;3.26;24.07
43298;BME280;28892;55.640;37.532;2023-04-15T03:34:07;100033.91;;;3.12;24.38
43298;BME280;28892;55.640;37.532;2023-04-15T03:36:35;100042.63;;;3.13;24.52
43298;BME280;28892;55.640;37.532;2023-04-15T03:39:02;100028.72;;;3.35;24.15
43298;BME280;28892;55.640;37.532;2023-04-15T03:41:29;100046.81;;;3.15;24.26
43298;BME280;28892;55.640;37.532;2023-04-15T03:43:56;100052.38;;;3.11;24.62
43298;BME280;28892;55.640;37.532;2023-04-15T03:46:26;100051.50;;;3.34;24.09
43298;BME280;28892;55.640;37.532;2023-04-15T03:48:53;100045.53;;;3.32;24.00
43298;BME280;28892;55.640;37.532;2023-04-15T03:51:20;100056.56;;;3.25;24.18
43298;BME280;28892;55.640;37.532;2023-04-15T03:53:47;100055.72;;;3.13;24.12
43298;BME280;28892;55.640;37.532;2023-04-15T03:56:14;100055.84;;;3.22;23.95
43298;BME280;28892;55.640;37.532;2023-04-15T03:58:41;100073.00;;;3.15;24.14
43298;BME280;28892;55.640;37.532;2023-04-15T04:01:08;100067.53;;;3.18;24.29
43298;BME280;28892;55.640;37.532;2023-04-15T04:03:35;100051.16;;;3.39;24.08
43298;BME280;28892;55.640;37.532;2023-04-15T04:06:03;100047.84;;;3.48;23.92
43298;BME280;28892;55.640;37.532;2023-04-15T04:08:30;100066.19;;;3.37;23.93
43298;BME280;28892;55.640;37.532;2023-04-15T04:10:57;100063.94;;;3.44;24.27
43298;BME280;28892;55.640;37.532;2023-04-15T04:13:24;100068.69;;;3.50;23.95
43298;BME280;28892;55.640;37.532;2023-04-15T04:15:51;100073.94;;;3.50;23.87
43298;BME280;28892;55.640;37.532;2023-04-15T04:18:18;100064.81;;;3.67;23.79
43298;BME280;28892;55.640;37.532;2023-04-15T04:20:45;100066.59;;;3.55;23.96
43298;BME280;28892;55.640;37.532;2023-04-15T04:23:12;100071.34;;;3.61;23.68
43298;BME280;28892;55.640;37.532;2023-04-15T04:25:39;100077.81;;;3.69;23.66
43298;BME280;28892;55.640;37.532;2023-04-15T04:28:07;100081.13;;;3.59;23.95
43298;BME280;28892;55.640;37.532;2023-04-15T04:30:34;100090.63;;;3.49;23.97
43298;BME280;28892;55.640;37.532;2023-04-15T04:33:01;100080.31;;;3.59;23.82
43298;BME280;28892;55.640;37.532;2023-04-15T04:35:28;100083.00;;;3.46;23.89
43298;BME280;28892;55.640;37.532;2023-04-15T04:37:55;100068.09;;;3.46;23.96
43298;BME280;28892;55.640;37.532;2023-04-15T04:40:23;100071.97;;;3.65;23.89
43298;BME280;28892;55.640;37.532;2023-04-15T04:42:50;100076.31;;;4.12;23.43
43298;BME280;28892;55.640;37.532;2023-04-15T04:45:17;100075.03;;;4.17;23.48
43298;BME280;28892;55.640;37.532;2023-04-15T04:47:44;100080.09;;;3.73;23.72
43298;BME280;28892;55.640;37.532;2023-04-15T04:50:12;100081.78;;;3.97;23.85
43298;BME280;28892;55.640;37.532;2023-04-15T04:52:39;100072.97;;;3.98;23.54
43298;BME280;28892;55.640;37.532;2023-04-15T04:55:07;100089.47;;;4.23;24.18
43298;BME280;28892;55.640;37.532;2023-04-15T04:57:34;100082.53;;;4.33;23.28
43298;BME280;28892;55.640;37.532;2023-04-15T05:00:06;100088.84;;;4.42;23.20
43298;BME280;28892;55.640;37.532;2023-04-15T05:02:37;100079.88;;;4.11;23.54
43298;BME280;28892;55.640;37.532;2023-04-15T05:05:05;100091.13;;;4.13;23.65
43298;BME280;28892;55.640;37.532;2023-04-15T05:07:37;100086.69;;;4.25;23.76
43298;BME280;28892;55.640;37.532;2023-04-15T05:10:22;100077.84;;;4.26;23.70
43298;BME280;28892;55.640;37.532;2023-04-15T05:12:49;100090.47;;;4.66;23.26
43298;BME280;28892;55.640;37.532;2023-04-15T05:15:17;100098.75;;;4.50;23.34
43298;BME280;28892;55.640;37.532;2023-04-15T05:17:44;100082.50;;;5.00;22.97
43298;BME280;28892;55.640;37.532;2023-04-15T05:20:14;100092.66;;;5.05;22.53
43298;BME280;28892;55.640;37.532;2023-04-15T05:22:41;100098.66;;;4.96;22.83
43298;BME280;28892;55.640;37.532;2023-04-15T05:25:08;100102.22;;;5.06;23.13
43298;BME280;28892;55.640;37.532;2023-04-15T05:27:35;100092.28;;;5.10;22.96
43298;BME280;28892;55.640;37.532;2023-04-15T05:30:02;100100.94;;;5.33;22.55
43298;BME280;28892;55.640;37.532;2023-04-15T05:32:30;100099.38;;;5.52;22.34
43298;BME280;28892;55.640;37.532;2023-04-15T05:34:56;100099.44;;;5.40;22.48
43298;BME280;28892;55.640;37.532;2023-04-15T05:37:23;100094.72;;;5.55;22.17
43298;BME280;28892;55.640;37.532;2023-04-15T05:39:51;100100.75;;;5.67;22.02
43298;BME280;28892;55.640;37.532;2023-04-15T05:42:18;100110.91;;;5.72;22.02
43298;BME280;28892;55.640;37.532;2023-04-15T05:44:45;100109.09;;;5.51;22.10
43298;BME280;28892;55.640;37.532;2023-04-15T05:47:12;100111.66;;;5.63;22.34
43298;BME280;28892;55.640;37.532;2023-04-15T05:49:39;100101.94;;;5.75;22.42
43298;BME280;28892;55.640;37.532;2023-04-15T05:52:06;100100.19;;;6.06;22.00
43298;BME280;28892;55.640;37.532;2023-04-15T05:54:33;100102.69;;;5.86;22.25
43298;BME280;28892;55.640;37.532;2023-04-15T05:57:00;100133.34;;;6.09;21.85
43298;BME280;28892;55.640;37.532;2023-04-15T05:59:27;100115.88;;;6.08;21.65
43298;BME280;28892;55.640;37.532;2023-04-15T06:01:54;100107.50;;;6.24;21.91
43298;BME280;28892;55.640;37.532;2023-04-15T06:04:21;100111.41;;;6.29;21.64
43298;BME280;28892;55.640;37.532;2023-04-15T06:06:48;100119.38;;;6.18;21.64
43298;BME280;28892;55.640;37.532;2023-04-15T06:09:15;100135.34;;;6.26;21.81
43298;BME280;28892;55.640;37.532;2023-04-15T06:11:42;100125.19;;;6.22;22.24
43298;BME280;28892;55.640;37.532;2023-04-15T06:14:09;100095.81;;;6.57;21.59
43298;BME280;28892;55.640;37.532;2023-04-15T06:16:36;100114.47;;;6.85;21.30
43298;BME280;28892;55.640;37.532;2023-04-15T06:19:03;100109.38;;;7.04;21.25
43298;BME280;28892;55.640;37.532;2023-04-15T06:21:30;100117.41;;;6.92;21.32
43298;BME280;28892;55.640;37.532;2023-04-15T06:23:58;100112.28;;;7.01;20.98
43298;BME280;28892;55.640;37.532;2023-04-15T06:26:27;100114.22;;;7.08;20.76
43298;BME280;28892;55.640;37.532;2023-04-15T06:28:55;100107.81;;;7.01;20.84
43298;BME280;28892;55.640;37.532;2023-04-15T06:31:22;100122.03;;;7.10;20.94
43298;BME280;28892;55.640;37.532;2023-04-15T06:33:49;100127.56;;;7.07;21.04
43298;BME280;28892;55.640;37.532;2023-04-15T06:36:16;100115.22;;;7.37;20.96
43298;BME280;28892;55.640;37.532;2023-04-15T06:38:43;100122.28;;;7.26;21.03
43298;BME280;28892;55.640;37.532;2023-04-15T06:41:10;100115.63;;;7.22;20.95
43298;BME280;28892;55.640;37.532;2023-04-15T06:43:38;100126.47;;;7.49;21.12
43298;BME280;28892;55.640;37.532;2023-04-15T06:46:05;100137.03;;;7.49;21.19
43298;BME280;28892;55.640;37.532;2023-04-15T06:48:32;100133.69;;;7.47;20.66
43298;BME280;28892;55.640;37.532;2023-04-15T06:51:01;100127.25;;;7.79;20.68
43298;BME280;28892;55.640;37.532;2023-04-15T06:53:29;100143.97;;;7.69;20.63
43298;BME280;28892;55.640;37.532;2023-04-15T06:55:56;100130.47;;;7.63;20.92
43298;BME280;28892;55.640;37.532;2023-04-15T06:58:23;100138.09;;;7.86;20.58
43298;BME280;28892;55.640;37.532;2023-04-15T07:00:51;100145.44;;;8.11;20.33
43298;BME280;28892;55.640;37.532;2023-04-15T07:03:18;100129.50;;;8.31;20.10
43298;BME280;28892;55.640;37.532;2023-04-15T07:05:48;100130.94;;;8.16;19.78
43298;BME280;28892;55.640;37.532;2023-04-15T07:08:16;100128.63;;;8.03;19.97
43298;BME280;28892;55.640;37.532;2023-04-15T07:10:42;100139.09;;;8.32;19.96
43298;BME280;28892;55.640;37.532;2023-04-15T07:13:09;100100.63;;;8.48;19.28
43298;BME280;28892;55.640;37.532;2023-04-15T07:15:37;100108.38;;;8.59;18.85
43298;BME280;28892;55.640;37.532;2023-04-15T07:18:06;100124.31;;;8.39;19.65
43298;BME280;28892;55.640;37.532;2023-04-15T07:20:38;100136.97;;;8.46;19.51
43298;BME280;28892;55.640;37.532;2023-04-15T07:23:05;100139.00;;;8.62;18.99
43298;BME280;28892;55.640;37.532;2023-04-15T07:25:33;100136.25;;;8.53;19.09
43298;BME280;28892;55.640;37.532;2023-04-15T07:28:00;100125.09;;;8.50;19.30
43298;BME280;28892;55.640;37.532;2023-04-15T07:30:28;100135.50;;;8.61;19.48
43298;BME280;28892;55.640;37.532;2023-04-15T07:32:55;100122.25;;;8.71;19.53
43298;BME280;28892;55.640;37.532;2023-04-15T07:35:22;100113.00;;;8.57;19.17
43298;BME280;28892;55.640;37.532;2023-04-15T07:37:49;100120.50;;;8.62;19.33
43298;BME280;28892;55.640;37.532;2023-04-15T07:40:16;100128.59;;;9.06;19.02
43298;BME280;28892;55.640;37.532;2023-04-15T07:42:43;100128.53;;;9.34;18.37
43298;BME280;28892;55.640;37.532;2023-04-15T07:45:10;100122.53;;;9.14;18.54
43298;BME280;28892;55.640;37.532;2023-04-15T07:47:38;100135.09;;;9.12;18.50
43298;BME280;28892;55.640;37.532;2023-04-15T07:50:06;100132.53;;;9.20;18.54
43298;BME280;28892;55.640;37.532;2023-04-15T07:52:34;100137.28;;;9.17;17.62
43298;BME280;28892;55.640;37.532;2023-04-15T07:55:08;100142.53;;;8.80;17.92
43298;BME280;28892;55.640;37.532;2023-04-15T08:01:03;100109.19;;;8.88;18.20
43298;BME280;28892;55.640;37.532;2023-04-15T08:03:33;100119.28;;;9.02;18.31
43298;BME280;28892;55.640;37.532;2023-04-15T08:06:00;100126.94;;;9.05;18.32
43298;BME280;28892;55.640;37.532;2023-04-15T08:08:27;100116.78;;;9.19;18.03
43298;BME280;28892;55.640;37.532;2023-04-15T08:10:54;100118.47;;;9.38;18.04
43298;BME280;28892;55.640;37.532;2023-04-15T08:13:21;100125.41;;;9.57;17.75
43298;BME280;28892;55.640;37.532;2023-04-15T08:16:18;100133.09;;;10.13;18.06
43298;BME280;28892;55.640;37.532;2023-04-15T08:18:50;100130.28;;;9.88;17.85
43298;BME280;28892;55.640;37.532;2023-04-15T08:21:18;100125.31;;;9.67;17.67
43298;BME280;28892;55.640;37.532;2023-04-15T08:23:46;100112.38;;;9.64;17.89
43298;BME280;28892;55.640;37.532;2023-04-15T08:26:14;100114.94;;;9.74;17.33
43298;BME280;28892;55.640;37.532;2023-04-15T08:28:42;100119.28;;;9.57;17.39
43298;BME280;28892;55.640;37.532;2023-04-15T08:31:10;100118.44;;;9.74;18.01
43298;BME280;28892;55.640;37.532;2023-04-15T08:33:38;100122.53;;;9.69;17.71
43298;BME280;28892;55.640;37.532;2023-04-15T08:36:05;100132.69;;;9.55;17.75
43298;BME280;28892;55.640;37.532;2023-04-15T08:38:34;100120.25;;;9.56;17.72
43298;BME280;28892;55.640;37.532;2023-04-15T08:41:06;100123.09;;;9.54;18.11
43298;BME280;28892;55.640;37.532;2023-04-15T08:43:48;100125.81;;;10.15;17.60
43298;BME280;28892;55.640;37.532;2023-04-15T08:46:17;100114.72;;;10.46;17.48
43298;BME280;28892;55.640;37.532;2023-04-15T08:48:47;100117.28;;;10.38;17.56
43298;BME280;28892;55.640;37.532;2023-04-15T08:51:16;100118.56;;;10.52;17.27
43298;BME280;28892;55.640;37.532;2023-04-15T08:53:44;100118.22;;;10.20;17.45
43298;BME280;28892;55.640;37.532;2023-04-15T08:56:15;100114.31;;;10.33;17.15
43298;BME280;28892;55.640;37.532;2023-04-15T08:58:43;100105.38;;;9.81;17.66
43298;BME280;28892;55.640;37.532;2023-04-15T09:01:13;100109.34;;;9.77;17.66
43298;BME280;28892;55.640;37.532;2023-04-15T09:03:44;100117.56;;;9.92;17.45
43298;BME280;28892;55.640;37.532;2023-04-15T09:06:16;100124.47;;;10.11;17.43
43298;BME280;28892;55.640;37.532;2023-04-15T09:08:43;100133.94;;;10.14;16.94
43298;BME280;28892;55.640;37.532;2023-04-15T09:11:10;100117.91;;;9.71;17.01
43298;BME280;28892;55.640;37.532;2023-04-15T09:13:38;100126.94;;;9.60;17.61
43298;BME280;28892;55.640;37.532;2023-04-15T09:16:06;100107.53;;;9.59;17.23
43298;BME280;28892;55.640;37.532;2023-04-15T09:18:35;100113.91;;;9.93;17.12
43298;BME280;28892;55.640;37.532;2023-04-15T09:21:12;100118.75;;;9.98;17.42
43298;BME280;28892;55.640;37.532;2023-04-15T09:23:53;100103.78;;;10.41;17.48
43298;BME280;28892;55.640;37.532;2023-04-15T09:26:35;100117.94;;;10.58;17.55
43298;BME280;28892;55.640;37.532;2023-04-15T09:29:08;100113.25;;;10.52;17.11
43298;BME280;28892;55.640;37.532;2023-04-15T09:31:38;100100.94;;;10.43;17.10
43298;BME280;28892;55.640;37.532;2023-04-15T09:34:06;100098.22;;;10.34;16.77
43298;BME280;28892;55.640;37.532;2023-04-15T09:36:54;100107.03;;;10.78;16.55
43298;BME280;28892;55.640;37.532;2023-04-15T09:39:22;100119.81;;;10.40;16.50
43298;BME280;28892;55.640;37.532;2023-04-15T09:42:12;100120.81;;;10.82;16.39
43298;BME280;28892;55.640;37.532;2023-04-15T09:44:52;100109.53;;;10.80;15.93
43298;BME280;28892;55.640;37.532;2023-04-15T09:47:31;100111.88;;;10.91;15.72
43298;BME280;28892;55.640;37.532;2023-04-15T09:49:59;100116.31;;;10.74;16.04
43298;BME280;28892;55.640;37.532;2023-04-15T09:52:29;100118.34;;;10.80;15.94
43298;BME280;28892;55.640;37.532;2023-04-15T09:54:59;100130.41;;;10.40;15.94
43298;BME280;28892;55.640;37.532;2023-04-15T09:57:34;100106.03;;;10.71;16.59
43298;BME280;28892;55.640;37.532;2023-04-15T10:00:06;100124.84;;;10.51;16.50
43298;BME280;28892;55.640;37.532;2023-04-15T10:02:39;100108.09;;;10.42;16.56
43298;BME280;28892;55.640;37.532;2023-04-15T10:05:09;100110.41;;;10.45;16.49
43298;BME280;28892;55.640;37.532;2023-04-15T10:07:37;100122.88;;;10.53;16.30
43298;BME280;28892;55.640;37.532;2023-04-15T10:10:07;100123.16;;;10.85;16.27
43298;BME280;28892;55.640;37.532;2023-04-15T10:12:37;100115.28;;;11.43;15.81
43298;BME280;28892;55.640;37.532;2023-04-15T10:15:14;100113.59;;;11.25;15.66
43298;BME280;28892;55.640;37.532;2023-04-15T10:17:43;100115.25;;;11.26;15.66
43298;BME280;28892;55.640;37.532;2023-04-15T10:20:11;100122.41;;;11.26;15.74
43298;BME280;28892;55.640;37.532;2023-04-15T10:22:39;100104.13;;;11.31;15.56
43298;BME280;28892;55.640;37.532;2023-04-15T10:25:08;100095.69;;;11.44;15.61
43298;BME280;28892;55.640;37.532;2023-04-15T10:27:36;100101.97;;;11.76;15.36
43298;BME280;28892;55.640;37.532;2023-04-15T10:30:05;100104.94;;;12.06;15.13
43298;BME280;28892;55.640;37.532;2023-04-15T10:32:33;100105.38;;;12.35;14.88
43298;BME280;28892;55.640;37.532;2023-04-15T10:35:00;100113.09;;;12.53;14.73
43298;BME280;28892;55.640;37.532;2023-04-15T10:37:37;100107.84;;;12.76;15.11
43298;BME280;28892;55.640;37.532;2023-04-15T10:42:55;100113.94;;;12.85;14.65
43298;BME280;28892;55.640;37.532;2023-04-15T10:45:25;100114.63;;;13.10;14.24
43298;BME280;28892;55.640;37.532;2023-04-15T10:47:57;100099.66;;;13.33;14.28
43298;BME280;28892;55.640;37.532;2023-04-15T10:50:32;100098.53;;;13.50;13.97
43298;BME280;28892;55.640;37.532;2023-04-15T10:53:03;100098.13;;;12.83;14.17
43298;BME280;28892;55.640;37.532;2023-04-15T10:55:32;100115.19;;;13.29;14.04
43298;BME280;28892;55.640;37.532;2023-04-15T10:58:03;100089.47;;;13.36;13.81
43298;BME280;28892;55.640;37.532;2023-04-15T11:00:31;100098.41;;;13.67;14.10
43298;BME280;28892;55.640;37.532;2023-04-15T11:03:09;100097.53;;;14.05;13.64
43298;BME280;28892;55.640;37.532;2023-04-15T11:05:50;100079.38;;;14.45;13.63
43298;BME280;28892;55.640;37.532;2023-04-15T11:08:17;100082.50;;;14.49;14.04
43298;BME280;28892;55.640;37.532;2023-04-15T11:13:16;100091.25;;;14.58;13.30
43298;BME280;28892;55.640;37.532;2023-04-15T11:15:45;100087.09;;;14.55;13.33
43298;BME280;28892;55.640;37.532;2023-04-15T11:23:29;100091.50;;;14.63;13.29
43298;BME280;28892;55.640;37.532;2023-04-15T11:25:58;100097.41;;;14.58;13.12
43298;BME280;28892;55.640;37.532;2023-04-15T11:28:26;100093.09;;;14.72;13.34
43298;BME280;28892;55.640;37.532;2023-04-15T11:30:54;100088.72;;;14.86;13.45
43298;BME280;28892;55.640;37.532;2023-04-15T11:33:22;100100.81;;;15.26;13.34
43298;BME280;28892;55.640;37.532;2023-04-15T11:35:53;100079.72;;;15.31;13.28
43298;BME280;28892;55.640;37.532;2023-04-15T11:38:20;100072.56;;;15.38;13.33
43298;BME280;28892;55.640;37.532;2023-04-15T11:40:49;100089.69;;;15.22;13.27
43298;BME280;28892;55.640;37.532;2023-04-15T11:43:21;100077.19;;;15.79;13.17
43298;BME280;28892;55.640;37.532;2023-04-15T11:45:54;100069.66;;;15.33;13.31
43298;BME280;28892;55.640;37.532;2023-04-15T11:48:26;100081.75;;;15.29;13.28
43298;BME280;28892;55.640;37.532;2023-04-15T11:51:05;100063.22;;;15.05;13.47
43298;BME280;28892;55.640;37.532;2023-04-15T11:53:43;100064.63;;;14.79;13.33
43298;BME280;28892;55.640;37.532;2023-04-15T11:56:20;100062.47;;;14.23;13.45
43298;BME280;28892;55.640;37.532;2023-04-15T11:58:48;100067.06;;;14.14;13.78
43298;BME280;28892;55.640;37.532;2023-04-15T12:01:16;100069.09;;;14.12;13.88
43298;BME280;28892;55.640;37.532;2023-04-15T12:03:44;100070.09;;;13.96;13.98
43298;BME280;28892;55.640;37.532;2023-04-15T12:06:22;100058.31;;;13.75;14.20
43298;BME280;28892;55.640;37.532;2023-04-15T12:13:47;100041.22;;;13.31;14.35
43298;BME280;28892;55.640;37.532;2023-04-15T12:16:18;100052.53;;;13.33;14.64
43298;BME280;28892;55.640;37.532;2023-04-15T12:18:50;100061.31;;;13.19;14.71
43298;BME280;28892;55.640;37.532;2023-04-15T12:21:22;100057.41;;;13.06;14.89
43298;BME280;28892;55.640;37.532;2023-04-15T12:23:49;100050.97;;;13.01;14.65
43298;BME280;28892;55.640;37.532;2023-04-15T12:26:26;100071.78;;;12.97;14.45
43298;BME280;28892;55.640;37.532;2023-04-15T12:29:03;100056.03;;;12.87;14.89
43298;BME280;28892;55.640;37.532;2023-04-15T12:31:43;100047.75;;;12.82;15.01
43298;BME280;28892;55.640;37.532;2023-04-15T12:34:11;100062.38;;;12.54;15.15
43298;BME280;28892;55.640;37.532;2023-04-15T12:36:40;100045.44;;;12.79;14.93
43298;BME280;28892;55.640;37.532;2023-04-15T12:39:05;100065.59;;;12.73;15.17
43298;BME280;28892;55.640;37.532;2023-04-15T12:41:32;100071.41;;;12.77;14.91
43298;BME280;28892;55.640;37.532;2023-04-15T12:43:58;100060.50;;;12.63;14.80
43298;BME280;28892;55.640;37.532;2023-04-15T12:46:24;100061.50;;;12.62;14.97
43298;BME280;28892;55.640;37.532;2023-04-15T12:48:50;100063.09;;;12.40;15.00
43298;BME280;28892;55.640;37.532;2023-04-15T12:51:18;100054.91;;;12.50;15.52
43298;BME280;28892;55.640;37.532;2023-04-15T12:53:46;100057.78;;;12.71;15.05
43298;BME280;28892;55.640;37.532;2023-04-15T12:56:15;100048.06;;;12.55;15.45
43298;BME280;28892;55.640;37.532;2023-04-15T12:58:42;100046.44;;;12.14;15.27
43298;BME280;28892;55.640;37.532;2023-04-15T13:01:08;100038.31;;;11.99;15.80
43298;BME280;28892;55.640;37.532;2023-04-15T13:03:35;100031.78;;;12.19;15.80
43298;BME280;28892;55.640;37.532;2023-04-15T13:06:01;100042.41;;;12.19;15.54
43298;BME280;28892;55.640;37.532;2023-04-15T13:08:29;100049.84;;;12.32;15.46
43298;BME280;28892;55.640;37.532;2023-04-15T13:10:55;100050.75;;;12.15;15.47
43298;BME280;28892;55.640;37.532;2023-04-15T13:13:21;100056.78;;;11.84;15.88
43298;BME280;28892;55.640;37.532;2023-04-15T13:15:47;100057.78;;;11.75;15.72